createdAt,value
2023-04-03T00:01:06.924Z,94357.53
2023-04-03T00:03:34.557Z,94365.81
2023-04-03T00:06:02.343Z,94364.75
2023-04-03T00:08:32.067Z,94364.72
2023-04-03T00:10:59.786Z,94368.41
2023-04-03T00:13:26.771Z,94340.81
2023-04-03T00:15:54.178Z,94361.34
2023-04-03T00:18:22.369Z,94343.63
2023-04-03T00:20:50.072Z,94349.03
2023-04-03T00:23:17.281Z,94353.19
2023-04-03T00:25:44.846Z,94351.84
2023-04-03T00:28:12.432Z,94349.69
2023-04-03T00:30:39.547Z,94353.84
2023-04-03T00:33:07.307Z,94345.25
2023-04-03T00:35:35.727Z,94342.44
2023-04-03T00:38:02.710Z,94349.44
2023-04-03T00:40:42.954Z,94330.50
2023-04-03T00:43:14.527Z,94355.47
2023-04-03T00:45:44.541Z,94365.75
2023-04-03T00:48:16.795Z,94360.69
2023-04-03T00:50:45.400Z,94351.03
2023-04-03T00:53:17.278Z,94360.03
2023-04-03T00:55:46.024Z,94362.13
2023-04-03T00:58:13.700Z,94363.66
2023-04-03T01:00:47.226Z,94371.06
2023-04-03T01:03:14.475Z,94363.00
2023-04-03T01:05:41.924Z,94372.00
2023-04-03T01:08:09.227Z,94363.41
2023-04-03T01:10:36.621Z,94364.75
2023-04-03T01:13:18.949Z,94362.03
2023-04-03T01:15:46.348Z,94370.56
2023-04-03T01:18:13.265Z,94369.97
2023-04-03T01:21:04.111Z,94364.91
2023-04-03T01:23:50.853Z,94361.94
2023-04-03T01:26:17.990Z,94358.69
2023-04-03T01:28:44.942Z,94358.13
2023-04-03T01:31:26.784Z,94370.63
2023-04-03T01:33:56.295Z,94368.19
2023-04-03T01:36:29.912Z,94368.19
2023-04-03T01:39:00.311Z,94368.44
2023-04-03T01:41:28.869Z,94358.28
2023-04-03T01:44:02.849Z,94355.41
2023-04-03T01:46:29.831Z,94365.53
2023-04-03T01:48:56.891Z,94342.50
2023-04-03T01:51:24.015Z,94364.75
2023-04-03T01:53:50.932Z,94367.28
2023-04-03T01:56:18.011Z,94364.16
2023-04-03T01:58:46.017Z,94364.41
2023-04-03T02:01:13.033Z,94369.72
2023-04-03T02:03:40.485Z,94366.47
2023-04-03T02:06:07.750Z,94370.41
2023-04-03T02:08:34.758Z,94362.69
2023-04-03T02:11:02.163Z,94362.91
2023-04-03T02:13:29.292Z,94366.88
2023-04-03T02:15:56.394Z,94361.13
2023-04-03T02:18:23.524Z,94360.47
2023-04-03T02:20:50.736Z,94378.56
2023-04-03T02:23:18.040Z,94377.75
2023-04-03T02:25:44.921Z,94367.63
2023-04-03T02:28:12.165Z,94359.56
2023-04-03T02:30:39.380Z,94345.06
2023-04-03T02:33:06.699Z,94352.69
2023-04-03T02:35:34.100Z,94223.88
2023-04-03T02:38:01.478Z,94350.72
2023-04-03T02:40:28.443Z,94349.16
2023-04-03T02:42:55.564Z,94327.06
2023-04-03T02:45:24.321Z,94351.69
2023-04-03T02:47:51.257Z,94356.63
2023-04-03T02:50:18.210Z,94349.41
2023-04-03T02:52:45.163Z,94344.34
2023-04-03T02:55:15.626Z,94344.00
2023-04-03T02:57:43.665Z,94334.66
2023-04-03T03:00:11.042Z,94324.75
2023-04-03T03:02:38.045Z,94337.47
2023-04-03T03:05:05.807Z,94335.03
2023-04-03T03:07:33.254Z,94267.59
2023-04-03T03:10:00.599Z,94330.88
2023-04-03T03:12:27.511Z,94328.59
2023-04-03T03:14:56.559Z,94319.25
2023-04-03T03:17:23.773Z,94284.38
2023-04-03T03:19:50.878Z,94325.50
2023-04-03T03:22:18.120Z,94321.81
2023-04-03T03:24:45.341Z,94324.69
2023-04-03T03:27:13.192Z,94324.13
2023-04-03T03:29:40.325Z,94313.63
2023-04-03T03:32:07.557Z,94323.78
2023-04-03T03:34:35.014Z,94322.38
2023-04-03T03:37:01.909Z,94325.03
2023-04-03T03:39:30.424Z,94329.53
2023-04-03T03:41:57.567Z,94329.41
2023-04-03T03:44:24.762Z,94336.78
2023-04-03T03:46:53.244Z,94334.13
2023-04-03T03:49:20.425Z,94328.72
2023-04-03T03:51:48.014Z,94323.19
2023-04-03T03:54:15.368Z,94325.94
2023-04-03T03:56:42.704Z,94329.63
2023-04-03T03:59:13.610Z,94332.16
2023-04-03T04:01:41.074Z,94284.88
2023-04-03T04:04:08.806Z,94342.75
2023-04-03T04:06:36.792Z,94329.06
2023-04-03T04:09:06.424Z,94331.50
2023-04-03T04:11:34.504Z,94309.75
2023-04-03T04:14:01.999Z,94332.38
2023-04-03T04:16:30.389Z,94320.66
2023-04-03T04:19:01.109Z,94347.94
2023-04-03T04:21:28.429Z,94354.41
2023-04-03T04:23:55.438Z,94330.44
2023-04-03T04:26:23.373Z,94343.13
2023-04-03T04:28:50.432Z,94347.00
2023-04-03T04:31:19.248Z,94326.53
2023-04-03T04:33:46.683Z,94334.81
2023-04-03T04:36:15.957Z,94332.38
2023-04-03T04:38:45.574Z,94356.63
2023-04-03T04:41:13.028Z,94356.97
2023-04-03T04:43:41.065Z,94364.09
2023-04-03T04:46:13.253Z,94360.81
2023-04-03T04:48:45.883Z,94358.06
2023-04-03T04:51:13.981Z,94365.63
2023-04-03T04:53:42.140Z,94343.75
2023-04-03T04:56:11.221Z,94369.84
2023-04-03T04:58:39.801Z,94375.81
2023-04-03T05:01:10.639Z,94360.78
2023-04-03T05:03:45.523Z,94380.03
2023-04-03T05:06:12.577Z,94371.25
2023-04-03T05:08:39.510Z,94379.72
2023-04-03T05:11:07.524Z,94385.44
2023-04-03T05:13:35.090Z,94381.50
2023-04-03T05:16:02.401Z,94397.47
2023-04-03T05:18:29.672Z,94403.84
2023-04-03T05:20:59.821Z,94406.41
2023-04-03T05:23:27.516Z,94373.00
2023-04-03T05:25:56.880Z,94399.31
2023-04-03T05:28:24.114Z,94399.16
2023-04-03T05:30:59.463Z,94397.63
2023-04-03T05:33:31.952Z,94389.47
2023-04-03T05:36:05.990Z,94400.09
2023-04-03T05:38:37.203Z,94397.88
2023-04-03T05:41:04.858Z,94390.19
2023-04-03T05:43:32.604Z,94395.34
2023-04-03T05:45:59.578Z,94395.72
2023-04-03T05:48:28.556Z,94381.59
2023-04-03T05:50:57.128Z,94387.00
2023-04-03T05:53:29.755Z,94379.06
2023-04-03T05:55:59.957Z,94386.94
2023-04-03T05:58:27.679Z,94381.63
2023-04-03T06:00:54.723Z,94382.75
2023-04-03T06:03:22.441Z,94362.22
2023-04-03T06:05:49.816Z,94378.84
2023-04-03T06:08:16.942Z,94361.59
2023-04-03T06:10:43.986Z,94367.97
2023-04-03T06:13:12.116Z,94361.59
2023-04-03T06:15:40.672Z,94349.44
2023-04-03T06:18:09.746Z,94358.34
2023-04-03T06:20:37.240Z,94339.16
2023-04-03T06:23:08.194Z,94320.34
2023-04-03T06:25:38.018Z,94364.56
2023-04-03T06:28:13.569Z,94363.13
2023-04-03T06:30:41.411Z,94258.34
2023-04-03T06:33:08.442Z,94370.13
2023-04-03T06:35:37.593Z,94364.59
2023-04-03T06:38:10.316Z,94374.81
2023-04-03T06:40:37.653Z,94371.13
2023-04-03T06:43:05.150Z,94357.25
2023-04-03T06:45:36.167Z,94388.59
2023-04-03T06:48:09.205Z,94376.88
2023-04-03T06:50:36.447Z,94361.94
2023-04-03T06:53:03.432Z,94371.03
2023-04-03T06:55:30.647Z,94377.16
2023-04-03T06:57:57.694Z,94385.47
2023-04-03T07:00:24.753Z,94389.25
2023-04-03T07:02:52.604Z,94387.09
2023-04-03T07:05:19.519Z,94376.41
2023-04-03T07:07:47.021Z,94376.44
2023-04-03T07:10:13.837Z,94376.44
2023-04-03T07:12:40.998Z,94369.50
2023-04-03T07:15:08.458Z,94376.16
2023-04-03T07:17:36.905Z,94360.91
2023-04-03T07:20:04.931Z,94366.81
2023-04-03T07:22:32.297Z,94370.81
2023-04-03T07:25:00.166Z,94375.34
2023-04-03T07:27:27.466Z,94358.50
2023-04-03T07:29:55.592Z,94363.50
2023-04-03T07:32:23.572Z,94360.81
2023-04-03T07:34:50.675Z,94349.28
2023-04-03T07:37:19.032Z,94357.03
2023-04-03T07:39:46.147Z,94353.22
2023-04-03T07:42:14.094Z,94347.81
2023-04-03T07:44:41.437Z,94348.56
2023-04-03T07:47:08.959Z,94335.19
2023-04-03T07:49:39.033Z,94335.91
2023-04-03T07:52:06.585Z,94333.97
2023-04-03T07:54:33.466Z,94331.19
2023-04-03T07:57:00.497Z,94336.44
2023-04-03T07:59:27.453Z,94329.38
2023-04-03T08:01:54.535Z,94317.94
2023-04-03T08:04:21.659Z,94328.53
2023-04-03T08:06:48.738Z,94323.31
2023-04-03T08:09:16.925Z,94318.41
2023-04-03T08:11:45.353Z,94335.31
2023-04-03T08:14:17.928Z,94324.78
2023-04-03T08:16:47.092Z,94309.84
2023-04-03T08:19:25.598Z,94318.81
2023-04-03T08:21:55.724Z,94307.13
2023-04-03T08:24:22.809Z,94317.31
2023-04-03T08:26:49.789Z,94311.97
2023-04-03T08:29:16.915Z,94309.66
2023-04-03T08:31:44.294Z,94319.66
2023-04-03T08:34:12.515Z,94317.53
2023-04-03T08:36:39.752Z,94321.16
2023-04-03T08:39:07.475Z,94305.19
2023-04-03T08:41:43.405Z,94306.22
2023-04-03T08:44:19.227Z,94296.56
2023-04-03T08:47:13.628Z,94295.97
2023-04-03T08:49:44.277Z,94285.81
2023-04-03T08:52:16.121Z,94292.13
2023-04-03T08:54:50.993Z,94292.13
2023-04-03T08:57:27.244Z,94292.38
2023-04-03T08:59:54.328Z,94267.38
2023-04-03T09:02:34.717Z,94286.94
2023-04-03T09:05:12.288Z,94285.69
2023-04-03T09:08:14.431Z,94265.31
2023-04-03T09:10:42.836Z,94259.03
2023-04-03T09:13:20.355Z,94265.72
2023-04-03T09:15:47.474Z,94250.97
2023-04-03T09:18:40.921Z,94253.59
2023-04-03T09:21:26.615Z,94255.28
2023-04-03T09:23:59.117Z,94253.97
2023-04-03T09:26:44.603Z,94254.69
2023-04-03T09:29:18.142Z,94236.63
2023-04-03T09:31:47.250Z,94235.75
2023-04-03T09:34:31.749Z,94243.97
2023-04-03T09:37:09.844Z,94244.78
2023-04-03T09:39:57.389Z,94234.41
2023-04-03T09:42:25.881Z,94233.53
2023-04-03T09:45:01.368Z,94231.81
2023-04-03T09:47:36.216Z,94223.97
2023-04-03T09:50:11.251Z,94220.56
2023-04-03T09:52:39.419Z,94217.00
2023-04-03T09:55:28.012Z,94218.16
2023-04-03T09:57:59.872Z,94197.75
2023-04-03T10:00:32.171Z,94195.41
2023-04-03T10:02:59.965Z,94216.19
2023-04-03T10:05:36.472Z,94196.88
2023-04-03T10:08:15.625Z,94216.06
2023-04-03T10:10:43.753Z,94217.50
2023-04-03T10:13:21.010Z,94218.09
2023-04-03T10:16:08.185Z,94213.66
2023-04-03T10:18:55.844Z,94208.59
2023-04-03T10:21:45.642Z,94202.41
2023-04-03T10:24:30.753Z,94216.38
2023-04-03T10:27:35.754Z,94202.69
2023-04-03T10:30:40.843Z,94205.38
2023-04-03T10:33:42.276Z,94204.88
2023-04-03T10:36:27.440Z,94194.06
2023-04-03T10:39:22.263Z,94196.25
2023-04-03T10:42:17.605Z,94183.13
2023-04-03T10:44:57.440Z,94180.59
2023-04-03T10:47:49.322Z,94179.19
2023-04-03T10:50:28.384Z,94177.28
2023-04-03T10:53:04.631Z,94176.59
2023-04-03T10:55:53.707Z,94172.22
2023-04-03T10:58:30.350Z,94164.94
2023-04-03T11:01:07.925Z,94175.56
2023-04-03T11:03:41.874Z,94169.78
2023-04-03T11:06:13.460Z,94177.00
2023-04-03T11:08:57.866Z,94181.34
2023-04-03T11:11:33.469Z,94186.09
2023-04-03T11:14:17.219Z,94185.75
2023-04-03T11:16:54.112Z,94208.56
2023-04-03T11:19:55.935Z,94199.50
2023-04-03T11:22:25.080Z,94187.41
2023-04-03T11:25:14.465Z,94182.84
2023-04-03T11:27:44.736Z,94194.38
2023-04-03T11:30:21.033Z,94175.75
2023-04-03T11:33:21.506Z,94182.03
2023-04-03T11:35:54.457Z,94189.88
2023-04-03T11:38:37.403Z,94173.66
2023-04-03T11:41:07.830Z,94188.00
2023-04-03T11:43:40.890Z,94188.00
2023-04-03T11:46:09.582Z,94182.50
2023-04-03T11:48:36.528Z,94180.00
2023-04-03T11:51:29.403Z,94192.06
2023-04-03T11:54:38.722Z,94192.50
2023-04-03T11:57:46.196Z,94183.19
2023-04-03T12:00:50.986Z,94191.34
2023-04-03T12:03:24.146Z,94188.59
2023-04-03T12:06:18.844Z,94189.31
2023-04-03T12:08:48.472Z,94193.94
2023-04-03T12:11:29.836Z,94199.44
2023-04-03T12:13:56.844Z,94206.53
2023-04-03T12:16:23.976Z,94202.31
2023-04-03T12:18:54.033Z,94190.84
2023-04-03T12:21:52.960Z,94188.19
2023-04-03T12:24:26.408Z,94179.91
2023-04-03T12:27:12.441Z,94185.38
2023-04-03T12:29:48.689Z,94181.13
2023-04-03T12:32:34.438Z,94170.47
2023-04-03T12:35:10.446Z,94172.97
2023-04-03T12:38:09.427Z,94174.75
2023-04-03T12:41:14.082Z,94170.53
2023-04-03T12:44:00.677Z,94159.59
2023-04-03T12:46:53.853Z,94156.13
2023-04-03T12:49:36.654Z,94149.16
2023-04-03T12:52:20.701Z,94150.00
2023-04-03T12:54:49.533Z,94142.00
2023-04-03T12:57:21.580Z,94146.56
2023-04-03T12:59:49.591Z,94142.63
2023-04-03T13:02:24.880Z,94142.44
2023-04-03T13:04:54.127Z,94152.38
2023-04-03T13:07:29.656Z,94148.69
2023-04-03T13:09:58.733Z,94152.44
2023-04-03T13:12:26.006Z,94144.41
2023-04-03T13:14:59.152Z,94147.09
2023-04-03T13:17:26.776Z,94141.53
2023-04-03T13:19:54.459Z,94122.59
2023-04-03T13:22:34.529Z,94143.16
2023-04-03T13:25:08.380Z,94135.69
2023-04-03T13:27:36.205Z,94099.41
2023-04-03T13:30:04.890Z,94127.44
2023-04-03T13:32:33.382Z,94130.63
2023-04-03T13:35:15.703Z,94126.38
2023-04-03T13:37:59.044Z,94125.31
2023-04-03T13:40:32.354Z,94128.78
2023-04-03T13:43:20.751Z,94138.41
2023-04-03T13:46:02.392Z,94123.72
2023-04-03T13:48:37.201Z,94130.66
2023-04-03T13:51:17.712Z,94118.16
2023-04-03T13:53:51.659Z,94121.06
2023-04-03T13:56:38.638Z,94123.72
2023-04-03T13:59:17.841Z,94107.44
2023-04-03T14:02:07.915Z,94109.34
2023-04-03T14:04:38.114Z,94118.66
2023-04-03T14:07:05.390Z,94113.31
2023-04-03T14:09:33.057Z,94108.25
2023-04-03T14:12:07.716Z,94104.00
2023-04-03T14:14:39.473Z,94091.72
2023-04-03T14:17:24.663Z,94055.44
2023-04-03T14:19:53.835Z,94110.66
2023-04-03T14:22:32.625Z,94109.59
2023-04-03T14:24:59.968Z,94104.50
2023-04-03T14:27:35.502Z,94103.47
2023-04-03T14:30:05.013Z,94105.88
2023-04-03T14:32:32.299Z,94094.66
2023-04-03T14:35:00.029Z,94089.59
2023-04-03T14:37:30.276Z,94079.72
2023-04-03T14:39:59.219Z,94097.88
2023-04-03T14:42:32.967Z,94095.19
2023-04-03T14:45:02.237Z,94090.66
2023-04-03T14:47:32.136Z,94091.44
2023-04-03T14:50:05.039Z,94084.78
2023-04-03T14:52:35.742Z,94085.31
2023-04-03T14:55:05.729Z,94085.03
2023-04-03T14:57:33.424Z,94085.31
2023-04-03T15:00:01.818Z,94074.91
2023-04-03T15:02:38.955Z,94072.00
2023-04-03T15:05:09.884Z,94070.09
2023-04-03T15:07:41.179Z,94071.97
2023-04-03T15:10:16.399Z,94065.56
2023-04-03T15:12:44.258Z,94072.53
2023-04-03T15:15:11.651Z,94065.84
2023-04-03T15:17:39.075Z,94069.31
2023-04-03T15:20:18.793Z,94051.16
2023-04-03T15:22:46.742Z,94049.31
2023-04-03T15:25:13.770Z,94059.72
2023-04-03T15:27:44.173Z,94052.78
2023-04-03T15:30:18.343Z,94062.38
2023-04-03T15:32:45.587Z,94047.69
2023-04-03T15:35:12.563Z,94052.22
2023-04-03T15:37:39.824Z,94039.44
2023-04-03T15:40:09.577Z,94054.66
2023-04-03T15:42:36.765Z,94043.72
2023-04-03T15:45:04.043Z,94043.72
2023-04-03T15:47:31.278Z,94034.63
2023-04-03T15:49:59.387Z,94033.84
2023-04-03T15:52:26.494Z,94015.94
2023-04-03T15:54:53.611Z,94024.47
2023-04-03T15:57:20.919Z,94039.69
2023-04-03T15:59:48.059Z,94037.28
2023-04-03T16:02:15.410Z,94034.06
2023-04-03T16:04:42.721Z,94017.00
2023-04-03T16:07:10.004Z,94019.66
2023-04-03T16:09:37.441Z,94019.13
2023-04-03T16:12:05.010Z,94023.38
2023-04-03T16:14:32.586Z,94018.88
2023-04-03T16:17:03.309Z,93980.72
2023-04-03T16:19:31.414Z,94014.84
2023-04-03T16:21:58.951Z,93999.13
2023-04-03T16:24:26.288Z,93995.09
2023-04-03T16:26:54.548Z,93990.84
2023-04-03T16:29:21.774Z,93991.13
2023-04-03T16:31:49.341Z,93998.31
2023-04-03T16:34:17.077Z,93993.78
2023-04-03T16:36:44.508Z,93967.94
2023-04-03T16:39:11.730Z,93970.88
2023-04-03T16:41:39.112Z,93965.00
2023-04-03T16:44:08.479Z,93939.16
2023-04-03T16:46:35.974Z,93933.56
2023-04-03T16:49:05.136Z,93933.03
2023-04-03T16:51:33.117Z,93928.22
2023-04-03T16:54:01.016Z,93900.78
2023-04-03T16:56:28.392Z,93902.66
2023-04-03T16:58:55.577Z,93901.06
2023-04-03T17:01:25.609Z,93905.84
2023-04-03T17:03:52.765Z,93892.53
2023-04-03T17:06:22.960Z,93903.97
2023-04-03T17:08:52.534Z,93895.97
2023-04-03T17:11:31.363Z,93895.97
2023-04-03T17:13:58.373Z,93891.19
2023-04-03T17:16:37.767Z,93864.28
2023-04-03T17:19:05.975Z,93879.19
2023-04-03T17:21:37.213Z,93876.03
2023-04-03T17:24:09.494Z,93888.78
2023-04-03T17:26:45.558Z,93858.16
2023-04-03T17:29:15.644Z,93873.59
2023-04-03T17:31:48.450Z,93886.69
2023-04-03T17:34:15.711Z,93875.22
2023-04-03T17:36:42.968Z,93845.09
2023-04-03T17:39:10.567Z,93871.75
2023-04-03T17:41:37.711Z,93869.09
2023-04-03T17:44:07.620Z,93868.56
2023-04-03T17:46:35.451Z,93848.56
2023-04-03T17:49:04.678Z,93861.63
2023-04-03T17:51:34.617Z,93867.75
2023-04-03T17:54:20.502Z,93870.41
2023-04-03T17:56:48.339Z,93871.22
2023-04-03T17:59:16.971Z,93843.78
2023-04-03T18:01:49.377Z,93848.59
2023-04-03T18:04:16.923Z,93858.69
2023-04-03T18:06:48.545Z,93861.09
2023-04-03T18:09:19.846Z,93864.28
2023-04-03T18:11:48.784Z,93861.38
2023-04-03T18:14:19.176Z,93859.75
2023-04-03T18:16:46.351Z,93827.81
2023-04-03T18:21:46.078Z,93841.41
2023-04-03T18:24:15.878Z,93836.34
2023-04-03T18:26:48.740Z,93836.88
2023-04-03T18:29:16.599Z,93720.50
2023-04-03T18:31:48.084Z,93810.50
2023-04-03T18:34:15.439Z,93847.53
2023-04-03T18:36:42.354Z,93846.19
2023-04-03T18:39:09.586Z,93818.50
2023-04-03T18:41:38.221Z,93836.88
2023-04-03T18:44:11.785Z,93832.88
2023-04-03T18:46:40.438Z,93800.09
2023-04-03T18:49:09.120Z,93810.78
2023-04-03T18:51:39.134Z,93820.88
2023-04-03T18:54:09.902Z,93805.69
2023-04-03T18:56:37.835Z,93824.06
2023-04-03T18:59:05.687Z,93797.19
2023-04-03T19:01:36.345Z,93802.25
2023-04-03T19:04:04.055Z,93777.47
2023-04-03T19:06:33.184Z,93806.75
2023-04-03T19:09:00.824Z,93808.13
2023-04-03T19:11:30.069Z,93759.13
2023-04-03T19:14:14.617Z,93779.34
2023-04-03T19:16:44.670Z,93751.41
2023-04-03T19:19:12.686Z,93751.66
2023-04-03T19:21:41.419Z,93777.47
2023-04-03T19:24:12.658Z,93778.53
2023-04-03T19:26:40.990Z,93778.81
2023-04-03T19:29:08.340Z,93772.16
2023-04-03T19:31:37.363Z,93773.22
2023-04-03T19:34:05.407Z,93777.75
2023-04-03T19:36:33.274Z,93776.16
2023-04-03T19:39:00.162Z,93772.16
2023-04-03T19:41:30.226Z,93738.06
2023-04-03T19:43:58.063Z,93740.22
2023-04-03T19:46:27.093Z,93747.91
2023-04-03T19:48:54.565Z,93754.59
2023-04-03T19:51:21.853Z,93705.06
2023-04-03T19:53:48.867Z,93760.44
2023-04-03T19:56:17.550Z,93709.59
2023-04-03T19:58:45.026Z,93754.03
2023-04-03T20:01:12.102Z,93766.81
2023-04-03T20:03:40.034Z,93749.28
2023-04-03T20:06:07.020Z,93733.28
2023-04-03T20:08:35.086Z,93735.69
2023-04-03T20:11:02.089Z,93742.06
2023-04-03T20:13:30.329Z,93745.53
2023-04-03T20:15:58.417Z,93741.81
2023-04-03T20:18:26.686Z,93758.59
2023-04-03T20:21:00.431Z,93749.53
2023-04-03T20:23:28.775Z,93740.75
2023-04-03T20:26:09.399Z,93745.81
2023-04-03T20:28:38.530Z,93742.59
2023-04-03T20:31:06.704Z,93730.09
2023-04-03T20:33:33.993Z,93717.06
2023-04-03T20:36:02.053Z,93727.16
2023-04-03T20:38:29.110Z,93720.25
2023-04-03T20:40:56.177Z,93718.66
2023-04-03T20:43:23.762Z,93727.16
2023-04-03T20:45:51.001Z,93730.38
2023-04-03T20:48:18.517Z,93732.22
2023-04-03T20:50:46.498Z,93723.44
2023-04-03T20:53:15.041Z,93713.06
2023-04-03T20:55:42.461Z,93713.63
2023-04-03T20:58:09.614Z,93738.63
2023-04-03T21:00:37.886Z,93738.06
2023-04-03T21:03:06.287Z,93748.47
2023-04-03T21:05:36.954Z,93745.53
2023-04-03T21:08:42.451Z,93746.06
2023-04-03T21:11:47.362Z,93746.63
2023-04-03T21:14:52.257Z,93738.06
2023-04-03T21:17:19.346Z,93720.25
2023-04-03T21:19:46.642Z,93715.19
2023-04-03T21:22:16.192Z,93706.66
2023-04-03T21:24:44.515Z,93707.75
2023-04-03T21:27:11.670Z,93701.34
2023-04-03T21:29:38.985Z,93694.69
2023-04-03T21:32:06.361Z,93685.66
2023-04-03T21:34:34.016Z,93680.06
2023-04-03T21:37:04.059Z,93675.50
2023-04-03T21:39:31.959Z,93674.44
2023-04-03T21:41:58.976Z,93645.47
2023-04-03T21:44:27.291Z,93651.81
2023-04-03T21:46:54.578Z,93643.84
2023-04-03T21:49:24.198Z,93634.00
2023-04-03T21:51:52.544Z,93652.88
2023-04-03T21:54:19.882Z,93653.69
2023-04-03T21:56:51.745Z,93651.03
2023-04-03T21:59:19.100Z,93638.81
2023-04-03T22:01:46.158Z,93641.97
2023-04-03T22:04:13.197Z,93625.47
2023-04-03T22:06:40.185Z,93630.53
2023-04-03T22:09:08.332Z,93629.72
2023-04-03T22:11:35.608Z,93635.03
2023-04-03T22:14:02.605Z,93633.72
2023-04-03T22:16:29.906Z,93635.88
2023-04-03T22:18:59.312Z,93636.09
2023-04-03T22:21:26.701Z,93616.72
2023-04-03T22:23:54.537Z,93630.56
2023-04-03T22:26:21.863Z,93635.06
2023-04-03T22:28:48.972Z,93625.75
2023-04-03T22:31:17.167Z,93633.22
2023-04-03T22:33:45.200Z,93614.31
2023-04-03T22:36:14.162Z,93618.56
2023-04-03T22:38:44.315Z,93614.31
2023-04-03T22:41:11.897Z,93603.66
2023-04-03T22:43:39.613Z,93582.38
2023-04-03T22:46:11.098Z,93573.63
2023-04-03T22:48:42.423Z,93568.31
2023-04-03T22:51:09.848Z,93598.13
2023-04-03T22:53:37.675Z,93607.44
2023-04-03T22:56:10.965Z,93603.44
2023-04-03T22:58:38.205Z,93594.16
2023-04-03T23:01:05.904Z,93596.25
2023-04-03T23:03:34.082Z,93598.66
2023-04-03T23:06:04.262Z,93599.16
2023-04-03T23:08:32.605Z,93583.75
2023-04-03T23:11:00.139Z,93595.47
2023-04-03T23:13:27.870Z,93597.88
2023-04-03T23:15:59.455Z,93594.69
2023-04-03T23:18:29.907Z,93596.00
2023-04-03T23:20:59.202Z,93582.69
2023-04-03T23:23:26.183Z,93582.97
2023-04-03T23:25:57.296Z,93583.75
2023-04-03T23:28:24.875Z,93586.44
2023-04-03T23:31:02.957Z,93581.91
2023-04-03T23:33:31.722Z,93577.38
2023-04-03T23:36:00.387Z,93573.41
2023-04-03T23:38:27.669Z,93567.28
2023-04-03T23:40:54.580Z,93563.84
2023-04-03T23:43:21.744Z,93554.00
2023-04-03T23:45:48.680Z,93558.50
2023-04-03T23:48:15.894Z,93547.09
2023-04-03T23:50:43.930Z,93545.22
2023-04-03T23:53:14.805Z,93551.59
2023-04-03T23:55:42.100Z,93533.78
2023-04-03T23:58:09.204Z,93543.34
